首页
METAR-TAF:

METAR-TAF

机场 :

温斯顿-塞勒姆, 北卡罗来纳州, 美国

纬度: 36-08-00N, 经度: 080-13-29W, 海拔: 295米

当前天气观测

该预报发布于1小时和12分钟前的22:54 UTC
静风
温度 11°C
湿度 58%
气压 1024 hPa
能見度: 16.1公里
天空无云

METAR: KINT 172254Z 00000KT 10SM CLR 11/03 A3024 RMK AO2 SLP242 T01060028

时间: 19:06 (00:06 UTC)

预报

该预报发布于29分钟前的23:37 UTC
预报有效从18日的 00点(UTC)到 18日的 24点(UTC)
风速节,风向
能見度: 10公里
多云层高于25000英尺
短暂存在
从 18日的 11点(UTC)到 18日的 13点(UTC)
能見度: 0.8公里
少量云层高于100英尺
从 18日的 1600点(UTC)
风速4节,风向多变
能見度: 10公里
散云层高于3500英尺
散云层高于20000英尺

TAF: KINT 172337Z 1800/1824 00000KT P6SM BKN250 TEMPO 1811/1813 1/2SM FG FEW001 FM181600 VRB04KT P6SM SCT035 SCT200

超过4000个机场的气象观测和天气预报(METAR&TAF报告)。

可查询的气象台以黄色和红色小点在地图上表示。

将鼠标移到小点上方,可查看气象台名称。

然后点击查看天气观测和预报。

如需切换地图:点击带黑十字的绿色按钮放大地图;点击带横线的绿色按钮缩小地图;或者点击绿色箭头查看邻近地区的地图。


METAR-TAF: